sensor_id;sensor_type;location;lat;lon;timestamp;temperature;humidity
62589;DHT22;58504;48.770;9.148;2023-09-30T00:00:46;23.10;63.50
62589;DHT22;58504;48.770;9.148;2023-09-30T00:03:13;23.20;63.50
62589;DHT22;58504;48.770;9.148;2023-09-30T00:05:40;23.20;63.60
62589;DHT22;58504;48.770;9.148;2023-09-30T00:08:07;23.20;63.60
62589;DHT22;58504;48.770;9.148;2023-09-30T00:10:35;23.20;63.70
62589;DHT22;58504;48.770;9.148;2023-09-30T00:13:02;23.10;63.50
62589;DHT22;58504;48.770;9.148;2023-09-30T00:15:29;23.20;64.40
62589;DHT22;58504;48.770;9.148;2023-09-30T00:17:55;23.20;63.70
62589;DHT22;58504;48.770;9.148;2023-09-30T00:20:22;23.20;63.70
62589;DHT22;58504;48.770;9.148;2023-09-30T00:22:49;23.20;63.60
62589;DHT22;58504;48.770;9.148;2023-09-30T00:25:16;23.20;63.60
62589;DHT22;58504;48.770;9.148;2023-09-30T00:27:44;23.20;63.70
62589;DHT22;58504;48.770;9.148;2023-09-30T00:30:11;23.20;63.70
62589;DHT22;58504;48.770;9.148;2023-09-30T00:32:37;23.20;63.70
62589;DHT22;58504;48.770;9.148;2023-09-30T00:35:06;23.20;63.70
62589;DHT22;58504;48.770;9.148;2023-09-30T00:37:37;23.20;63.70
62589;DHT22;58504;48.770;9.148;2023-09-30T00:40:04;23.10;63.60
62589;DHT22;58504;48.770;9.148;2023-09-30T00:42:31;23.10;63.60
62589;DHT22;58504;48.770;9.148;2023-09-30T00:45:00;23.20;63.70
62589;DHT22;58504;48.770;9.148;2023-09-30T00:47:26;23.10;63.60
62589;DHT22;58504;48.770;9.148;2023-09-30T00:49:53;23.10;63.70
62589;DHT22;58504;48.770;9.148;2023-09-30T00:52:20;23.10;63.60
62589;DHT22;58504;48.770;9.148;2023-09-30T00:54:49;23.10;63.70
62589;DHT22;58504;48.770;9.148;2023-09-30T00:57:16;23.10;63.70
62589;DHT22;58504;48.770;9.148;2023-09-30T00:59:45;23.10;63.70
62589;DHT22;58504;48.770;9.148;2023-09-30T01:02:13;23.10;63.70
62589;DHT22;58504;48.770;9.148;2023-09-30T01:04:40;23.10;63.70
62589;DHT22;58504;48.770;9.148;2023-09-30T01:07:07;23.10;63.70
62589;DHT22;58504;48.770;9.148;2023-09-30T01:09:34;23.10;63.70
62589;DHT22;58504;48.770;9.148;2023-09-30T01:12:02;23.10;63.70
62589;DHT22;58504;48.770;9.148;2023-09-30T01:14:31;23.10;63.70
62589;DHT22;58504;48.770;9.148;2023-09-30T01:17:00;23.10;63.70
62589;DHT22;58504;48.770;9.148;2023-09-30T01:19:28;23.10;63.70
62589;DHT22;58504;48.770;9.148;2023-09-30T01:21:56;23.10;63.70
62589;DHT22;58504;48.770;9.148;2023-09-30T01:24:25;23.10;63.70
62589;DHT22;58504;48.770;9.148;2023-09-30T01:26:52;23.10;63.70
62589;DHT22;58504;48.770;9.148;2023-09-30T01:29:19;23.10;63.80
62589;DHT22;58504;48.770;9.148;2023-09-30T01:31:47;23.10;63.70
62589;DHT22;58504;48.770;9.148;2023-09-30T01:34:15;23.10;63.80
62589;DHT22;58504;48.770;9.148;2023-09-30T01:36:42;23.10;63.80
62589;DHT22;58504;48.770;9.148;2023-09-30T01:39:11;23.10;63.80
62589;DHT22;58504;48.770;9.148;2023-09-30T01:41:38;23.10;63.70
62589;DHT22;58504;48.770;9.148;2023-09-30T01:44:07;23.10;63.70
62589;DHT22;58504;48.770;9.148;2023-09-30T01:46:35;23.10;63.70
62589;DHT22;58504;48.770;9.148;2023-09-30T01:49:01;23.10;63.70
62589;DHT22;58504;48.770;9.148;2023-09-30T01:51:29;23.10;63.70
62589;DHT22;58504;48.770;9.148;2023-09-30T01:53:56;23.10;63.70
62589;DHT22;58504;48.770;9.148;2023-09-30T01:56:24;23.10;63.80
62589;DHT22;58504;48.770;9.148;2023-09-30T01:58:50;23.00;63.60
62589;DHT22;58504;48.770;9.148;2023-09-30T02:01:17;23.10;63.70
62589;DHT22;58504;48.770;9.148;2023-09-30T02:03:44;23.10;63.70
62589;DHT22;58504;48.770;9.148;2023-09-30T02:06:11;23.00;63.60
62589;DHT22;58504;48.770;9.148;2023-09-30T02:08:38;23.00;63.60
62589;DHT22;58504;48.770;9.148;2023-09-30T02:11:05;23.10;63.80
62589;DHT22;58504;48.770;9.148;2023-09-30T02:13:34;23.00;63.60
62589;DHT22;58504;48.770;9.148;2023-09-30T02:16:01;23.10;63.80
62589;DHT22;58504;48.770;9.148;2023-09-30T02:18:28;23.00;63.70
62589;DHT22;58504;48.770;9.148;2023-09-30T02:20:57;23.00;63.70
62589;DHT22;58504;48.770;9.148;2023-09-30T02:23:25;23.00;63.70
62589;DHT22;58504;48.770;9.148;2023-09-30T02:25:51;23.00;63.60
62589;DHT22;58504;48.770;9.148;2023-09-30T02:28:18;23.00;63.70
62589;DHT22;58504;48.770;9.148;2023-09-30T02:30:46;23.00;63.70
62589;DHT22;58504;48.770;9.148;2023-09-30T02:33:14;23.00;63.70
62589;DHT22;58504;48.770;9.148;2023-09-30T02:35:43;23.00;63.70
62589;DHT22;58504;48.770;9.148;2023-09-30T02:38:10;23.00;63.70
62589;DHT22;58504;48.770;9.148;2023-09-30T02:40:37;23.00;63.70
62589;DHT22;58504;48.770;9.148;2023-09-30T02:43:05;23.00;63.70
62589;DHT22;58504;48.770;9.148;2023-09-30T02:45:32;23.00;63.70
62589;DHT22;58504;48.770;9.148;2023-09-30T02:48:00;23.00;63.80
62589;DHT22;58504;48.770;9.148;2023-09-30T02:50:27;23.00;63.70
62589;DHT22;58504;48.770;9.148;2023-09-30T02:52:54;23.00;63.80
62589;DHT22;58504;48.770;9.148;2023-09-30T02:55:20;23.00;63.70
62589;DHT22;58504;48.770;9.148;2023-09-30T02:57:47;23.00;63.80
62589;DHT22;58504;48.770;9.148;2023-09-30T03:00:14;23.00;63.80
62589;DHT22;58504;48.770;9.148;2023-09-30T03:02:46;23.00;63.70
62589;DHT22;58504;48.770;9.148;2023-09-30T03:05:14;23.00;63.80
62589;DHT22;58504;48.770;9.148;2023-09-30T03:07:41;23.00;63.80
62589;DHT22;58504;48.770;9.148;2023-09-30T03:10:08;23.00;63.90
62589;DHT22;58504;48.770;9.148;2023-09-30T03:12:36;23.00;63.80
62589;DHT22;58504;48.770;9.148;2023-09-30T03:15:03;23.00;63.80
62589;DHT22;58504;48.770;9.148;2023-09-30T03:17:30;23.00;63.90
62589;DHT22;58504;48.770;9.148;2023-09-30T03:19:57;23.00;63.80
62589;DHT22;58504;48.770;9.148;2023-09-30T03:22:25;23.00;63.80
62589;DHT22;58504;48.770;9.148;2023-09-30T03:24:53;23.00;63.80
62589;DHT22;58504;48.770;9.148;2023-09-30T03:27:19;23.00;63.80
62589;DHT22;58504;48.770;9.148;2023-09-30T03:29:46;23.00;63.80
62589;DHT22;58504;48.770;9.148;2023-09-30T03:32:13;23.00;63.80
62589;DHT22;58504;48.770;9.148;2023-09-30T03:34:40;23.00;63.80
62589;DHT22;58504;48.770;9.148;2023-09-30T03:37:10;23.00;63.80
62589;DHT22;58504;48.770;9.148;2023-09-30T03:39:38;23.00;63.80
62589;DHT22;58504;48.770;9.148;2023-09-30T03:42:06;23.00;63.80
62589;DHT22;58504;48.770;9.148;2023-09-30T03:44:36;23.00;63.80
62589;DHT22;58504;48.770;9.148;2023-09-30T03:47:03;23.00;63.80
62589;DHT22;58504;48.770;9.148;2023-09-30T03:49:30;22.90;63.70
62589;DHT22;58504;48.770;9.148;2023-09-30T03:51:57;23.00;63.80
62589;DHT22;58504;48.770;9.148;2023-09-30T03:54:24;22.90;63.70
62589;DHT22;58504;48.770;9.148;2023-09-30T03:56:52;23.00;63.80
62589;DHT22;58504;48.770;9.148;2023-09-30T03:59:18;22.90;63.70
62589;DHT22;58504;48.770;9.148;2023-09-30T04:01:45;22.90;63.70
62589;DHT22;58504;48.770;9.148;2023-09-30T04:04:12;22.90;63.70
62589;DHT22;58504;48.770;9.148;2023-09-30T04:06:39;23.00;63.80
62589;DHT22;58504;48.770;9.148;2023-09-30T04:09:06;23.00;63.80
62589;DHT22;58504;48.770;9.148;2023-09-30T04:11:36;22.90;63.70
62589;DHT22;58504;48.770;9.148;2023-09-30T04:14:06;22.90;63.70
62589;DHT22;58504;48.770;9.148;2023-09-30T04:16:33;22.90;63.70
62589;DHT22;58504;48.770;9.148;2023-09-30T04:19:00;22.90;63.80
62589;DHT22;58504;48.770;9.148;2023-09-30T04:21:27;22.90;63.80
62589;DHT22;58504;48.770;9.148;2023-09-30T04:23:56;22.90;63.80
62589;DHT22;58504;48.770;9.148;2023-09-30T04:26:23;22.90;63.80
62589;DHT22;58504;48.770;9.148;2023-09-30T04:28:50;22.90;63.80
62589;DHT22;58504;48.770;9.148;2023-09-30T04:31:19;22.90;63.80
62589;DHT22;58504;48.770;9.148;2023-09-30T04:33:47;22.90;63.80
62589;DHT22;58504;48.770;9.148;2023-09-30T04:36:14;22.90;63.90
62589;DHT22;58504;48.770;9.148;2023-09-30T04:38:41;22.90;63.90
62589;DHT22;58504;48.770;9.148;2023-09-30T04:41:08;22.90;63.90
62589;DHT22;58504;48.770;9.148;2023-09-30T04:43:35;22.90;63.90
62589;DHT22;58504;48.770;9.148;2023-09-30T04:46:04;22.90;63.90
62589;DHT22;58504;48.770;9.148;2023-09-30T04:48:33;22.90;63.90
62589;DHT22;58504;48.770;9.148;2023-09-30T04:51:00;22.90;63.90
62589;DHT22;58504;48.770;9.148;2023-09-30T04:53:30;22.90;63.80
62589;DHT22;58504;48.770;9.148;2023-09-30T04:55:59;22.90;63.90
62589;DHT22;58504;48.770;9.148;2023-09-30T04:58:27;22.90;63.80
62589;DHT22;58504;48.770;9.148;2023-09-30T05:00:55;22.90;63.80
62589;DHT22;58504;48.770;9.148;2023-09-30T05:03:21;22.90;63.80
62589;DHT22;58504;48.770;9.148;2023-09-30T05:05:51;22.90;63.90
62589;DHT22;58504;48.770;9.148;2023-09-30T05:08:19;22.90;63.80
62589;DHT22;58504;48.770;9.148;2023-09-30T05:10:46;22.90;63.80
62589;DHT22;58504;48.770;9.148;2023-09-30T05:13:13;22.90;63.80
62589;DHT22;58504;48.770;9.148;2023-09-30T05:15:40;22.90;63.80
62589;DHT22;58504;48.770;9.148;2023-09-30T05:18:07;22.90;63.80
62589;DHT22;58504;48.770;9.148;2023-09-30T05:20:35;22.90;63.80
62589;DHT22;58504;48.770;9.148;2023-09-30T05:23:05;22.90;63.80
62589;DHT22;58504;48.770;9.148;2023-09-30T05:25:33;22.90;63.80
62589;DHT22;58504;48.770;9.148;2023-09-30T05:27:59;22.90;63.80
62589;DHT22;58504;48.770;9.148;2023-09-30T05:30:26;22.90;63.80
62589;DHT22;58504;48.770;9.148;2023-09-30T05:32:53;22.90;63.80
62589;DHT22;58504;48.770;9.148;2023-09-30T05:35:19;22.90;63.80
62589;DHT22;58504;48.770;9.148;2023-09-30T05:37:48;22.90;63.80
62589;DHT22;58504;48.770;9.148;2023-09-30T05:40:19;22.90;63.90
62589;DHT22;58504;48.770;9.148;2023-09-30T05:42:52;22.90;63.80
62589;DHT22;58504;48.770;9.148;2023-09-30T05:45:19;22.90;63.80
62589;DHT22;58504;48.770;9.148;2023-09-30T05:47:46;22.90;63.80
62589;DHT22;58504;48.770;9.148;2023-09-30T05:50:13;22.90;63.80
62589;DHT22;58504;48.770;9.148;2023-09-30T05:52:42;22.90;63.80
62589;DHT22;58504;48.770;9.148;2023-09-30T05:55:10;22.90;63.80
62589;DHT22;58504;48.770;9.148;2023-09-30T05:57:38;22.90;63.80
62589;DHT22;58504;48.770;9.148;2023-09-30T06:00:06;22.90;63.80
62589;DHT22;58504;48.770;9.148;2023-09-30T06:02:53;22.90;63.80
62589;DHT22;58504;48.770;9.148;2023-09-30T06:05:21;22.90;63.80
62589;DHT22;58504;48.770;9.148;2023-09-30T06:07:48;22.90;63.80
62589;DHT22;58504;48.770;9.148;2023-09-30T06:10:16;22.90;63.80
62589;DHT22;58504;48.770;9.148;2023-09-30T06:12:45;22.90;63.80
62589;DHT22;58504;48.770;9.148;2023-09-30T06:15:13;22.90;63.80
62589;DHT22;58504;48.770;9.148;2023-09-30T06:17:40;22.90;63.90
62589;DHT22;58504;48.770;9.148;2023-09-30T06:20:08;22.90;63.80
62589;DHT22;58504;48.770;9.148;2023-09-30T06:22:43;22.90;63.80
62589;DHT22;58504;48.770;9.148;2023-09-30T06:25:10;22.90;63.80
62589;DHT22;58504;48.770;9.148;2023-09-30T06:27:37;22.90;63.80
62589;DHT22;58504;48.770;9.148;2023-09-30T06:30:07;22.90;63.70
62589;DHT22;58504;48.770;9.148;2023-09-30T06:32:34;22.90;63.70
62589;DHT22;58504;48.770;9.148;2023-09-30T06:35:02;22.90;63.70
62589;DHT22;58504;48.770;9.148;2023-09-30T06:37:29;22.90;63.70
62589;DHT22;58504;48.770;9.148;2023-09-30T06:39:56;22.90;63.60
62589;DHT22;58504;48.770;9.148;2023-09-30T06:42:23;22.90;63.50
62589;DHT22;58504;48.770;9.148;2023-09-30T06:44:50;23.00;63.60
62589;DHT22;58504;48.770;9.148;2023-09-30T06:47:19;23.00;63.50
62589;DHT22;58504;48.770;9.148;2023-09-30T06:49:46;23.00;63.30
62589;DHT22;58504;48.770;9.148;2023-09-30T06:52:13;23.10;63.30
62589;DHT22;58504;48.770;9.148;2023-09-30T06:54:39;23.10;63.10
62589;DHT22;58504;48.770;9.148;2023-09-30T06:57:06;23.20;63.10
62589;DHT22;58504;48.770;9.148;2023-09-30T06:59:35;23.20;62.80
62589;DHT22;58504;48.770;9.148;2023-09-30T07:02:03;23.20;62.60
62589;DHT22;58504;48.770;9.148;2023-09-30T07:04:31;23.30;62.60
62589;DHT22;58504;48.770;9.148;2023-09-30T07:06:58;23.20;62.70
62589;DHT22;58504;48.770;9.148;2023-09-30T07:09:24;23.20;62.80
62589;DHT22;58504;48.770;9.148;2023-09-30T07:11:52;23.30;62.90
62589;DHT22;58504;48.770;9.148;2023-09-30T07:14:19;23.30;62.80
62589;DHT22;58504;48.770;9.148;2023-09-30T07:16:45;23.20;62.60
62589;DHT22;58504;48.770;9.148;2023-09-30T07:19:12;23.30;62.70
62589;DHT22;58504;48.770;9.148;2023-09-30T07:21:40;23.30;62.60
62589;DHT22;58504;48.770;9.148;2023-09-30T07:24:07;23.30;62.40
62589;DHT22;58504;48.770;9.148;2023-09-30T07:26:35;23.30;62.30
62589;DHT22;58504;48.770;9.148;2023-09-30T07:29:02;23.30;62.30
62589;DHT22;58504;48.770;9.148;2023-09-30T07:31:34;23.30;62.30
62589;DHT22;58504;48.770;9.148;2023-09-30T07:34:01;23.30;62.10
62589;DHT22;58504;48.770;9.148;2023-09-30T07:36:28;23.40;62.10
62589;DHT22;58504;48.770;9.148;2023-09-30T07:38:56;23.40;61.90
62589;DHT22;58504;48.770;9.148;2023-09-30T07:41:23;23.40;61.80
62589;DHT22;58504;48.770;9.148;2023-09-30T07:43:49;23.50;61.80
62589;DHT22;58504;48.770;9.148;2023-09-30T07:46:16;23.50;61.60
62589;DHT22;58504;48.770;9.148;2023-09-30T07:48:43;23.50;61.50
62589;DHT22;58504;48.770;9.148;2023-09-30T07:51:10;23.60;61.60
62589;DHT22;58504;48.770;9.148;2023-09-30T07:53:38;23.60;61.30
62589;DHT22;58504;48.770;9.148;2023-09-30T07:56:06;23.60;61.20
62589;DHT22;58504;48.770;9.148;2023-09-30T07:58:33;23.60;61.10
62589;DHT22;58504;48.770;9.148;2023-09-30T08:01:00;23.70;61.00
62589;DHT22;58504;48.770;9.148;2023-09-30T08:03:28;23.70;60.90
62589;DHT22;58504;48.770;9.148;2023-09-30T08:05:55;23.70;60.80
62589;DHT22;58504;48.770;9.148;2023-09-30T08:08:23;23.70;60.60
62589;DHT22;58504;48.770;9.148;2023-09-30T08:10:50;23.80;60.60
62589;DHT22;58504;48.770;9.148;2023-09-30T08:13:22;23.80;60.50
62589;DHT22;58504;48.770;9.148;2023-09-30T08:15:49;23.80;60.40
62589;DHT22;58504;48.770;9.148;2023-09-30T08:18:16;23.80;60.30
62589;DHT22;58504;48.770;9.148;2023-09-30T08:20:43;23.90;60.30
62589;DHT22;58504;48.770;9.148;2023-09-30T08:23:10;23.90;60.20
62589;DHT22;58504;48.770;9.148;2023-09-30T08:25:37;23.90;60.20
62589;DHT22;58504;48.770;9.148;2023-09-30T08:28:04;23.90;60.10
62589;DHT22;58504;48.770;9.148;2023-09-30T08:30:34;23.90;60.10
62589;DHT22;58504;48.770;9.148;2023-09-30T08:33:00;23.90;60.00
62589;DHT22;58504;48.770;9.148;2023-09-30T08:35:29;23.90;59.80
62589;DHT22;58504;48.770;9.148;2023-09-30T08:37:57;23.90;60.00
62589;DHT22;58504;48.770;9.148;2023-09-30T08:40:24;23.90;60.00
62589;DHT22;58504;48.770;9.148;2023-09-30T08:42:52;24.00;60.00
62589;DHT22;58504;48.770;9.148;2023-09-30T08:45:19;24.00;59.90
62589;DHT22;58504;48.770;9.148;2023-09-30T08:47:47;24.00;59.90
62589;DHT22;58504;48.770;9.148;2023-09-30T08:50:16;24.00;59.80
62589;DHT22;58504;48.770;9.148;2023-09-30T08:52:44;24.10;59.80
62589;DHT22;58504;48.770;9.148;2023-09-30T08:55:11;24.10;59.80
62589;DHT22;58504;48.770;9.148;2023-09-30T08:57:40;24.10;59.60
62589;DHT22;58504;48.770;9.148;2023-09-30T09:00:08;24.10;59.60
62589;DHT22;58504;48.770;9.148;2023-09-30T09:02:37;24.10;59.50
62589;DHT22;58504;48.770;9.148;2023-09-30T09:05:06;24.20;59.60
62589;DHT22;58504;48.770;9.148;2023-09-30T09:07:33;24.20;59.50
62589;DHT22;58504;48.770;9.148;2023-09-30T09:10:03;24.20;59.40
62589;DHT22;58504;48.770;9.148;2023-09-30T09:12:31;24.20;59.40
62589;DHT22;58504;48.770;9.148;2023-09-30T09:14:58;24.20;59.40
62589;DHT22;58504;48.770;9.148;2023-09-30T09:17:39;24.20;59.30
62589;DHT22;58504;48.770;9.148;2023-09-30T09:20:09;24.20;59.20
62589;DHT22;58504;48.770;9.148;2023-09-30T09:22:40;24.20;59.30
62589;DHT22;58504;48.770;9.148;2023-09-30T09:25:07;24.20;59.80
62589;DHT22;58504;48.770;9.148;2023-09-30T09:27:34;24.20;59.30
62589;DHT22;58504;48.770;9.148;2023-09-30T09:30:15;24.20;59.30
62589;DHT22;58504;48.770;9.148;2023-09-30T09:32:52;24.20;59.20
62589;DHT22;58504;48.770;9.148;2023-09-30T09:35:22;24.30;59.10
62589;DHT22;58504;48.770;9.148;2023-09-30T09:37:57;24.30;59.10
62589;DHT22;58504;48.770;9.148;2023-09-30T09:40:26;24.30;59.10
62589;DHT22;58504;48.770;9.148;2023-09-30T09:42:54;24.30;59.10
62589;DHT22;58504;48.770;9.148;2023-09-30T09:45:22;24.40;59.00
62589;DHT22;58504;48.770;9.148;2023-09-30T09:47:50;24.50;58.80
62589;DHT22;58504;48.770;9.148;2023-09-30T09:50:18;24.60;58.60
62589;DHT22;58504;48.770;9.148;2023-09-30T09:52:48;24.80;58.30
62589;DHT22;58504;48.770;9.148;2023-09-30T09:55:16;24.90;57.90
62589;DHT22;58504;48.770;9.148;2023-09-30T09:57:45;25.10;57.60
62589;DHT22;58504;48.770;9.148;2023-09-30T10:00:13;25.20;57.20
62589;DHT22;58504;48.770;9.148;2023-09-30T10:02:41;25.30;56.90
62589;DHT22;58504;48.770;9.148;2023-09-30T10:05:08;25.40;56.60
62589;DHT22;58504;48.770;9.148;2023-09-30T10:07:40;25.50;56.50
62589;DHT22;58504;48.770;9.148;2023-09-30T10:10:12;25.50;56.40
62589;DHT22;58504;48.770;9.148;2023-09-30T10:12:40;25.40;56.50
62589;DHT22;58504;48.770;9.148;2023-09-30T10:15:38;25.40;56.60
62589;DHT22;58504;48.770;9.148;2023-09-30T10:18:07;25.30;56.70
62589;DHT22;58504;48.770;9.148;2023-09-30T10:20:36;25.10;57.00
62589;DHT22;58504;48.770;9.148;2023-09-30T10:23:23;25.00;57.30
62589;DHT22;58504;48.770;9.148;2023-09-30T10:25:53;24.90;57.60
62589;DHT22;58504;48.770;9.148;2023-09-30T10:28:37;24.80;57.70
62589;DHT22;58504;48.770;9.148;2023-09-30T10:31:08;24.90;57.80
62589;DHT22;58504;48.770;9.148;2023-09-30T10:33:35;24.80;57.90
62589;DHT22;58504;48.770;9.148;2023-09-30T10:36:03;24.80;58.00
62589;DHT22;58504;48.770;9.148;2023-09-30T10:38:37;24.70;58.00
62589;DHT22;58504;48.770;9.148;2023-09-30T10:41:06;24.60;58.20
62589;DHT22;58504;48.770;9.148;2023-09-30T10:43:34;24.60;58.30
62589;DHT22;58504;48.770;9.148;2023-09-30T10:46:03;24.50;58.40
62589;DHT22;58504;48.770;9.148;2023-09-30T10:48:36;24.50;58.50
62589;DHT22;58504;48.770;9.148;2023-09-30T10:51:16;24.50;58.70
62589;DHT22;58504;48.770;9.148;2023-09-30T10:53:48;24.40;58.70
62589;DHT22;58504;48.770;9.148;2023-09-30T10:56:18;24.40;58.70
62589;DHT22;58504;48.770;9.148;2023-09-30T10:58:46;24.40;58.80
62589;DHT22;58504;48.770;9.148;2023-09-30T11:01:14;24.30;58.80
62589;DHT22;58504;48.770;9.148;2023-09-30T11:03:42;24.40;58.90
62589;DHT22;58504;48.770;9.148;2023-09-30T11:06:11;24.40;58.90
62589;DHT22;58504;48.770;9.148;2023-09-30T11:08:45;24.30;58.80
62589;DHT22;58504;48.770;9.148;2023-09-30T11:11:13;24.30;58.90
62589;DHT22;58504;48.770;9.148;2023-09-30T11:13:41;24.30;58.90
62589;DHT22;58504;48.770;9.148;2023-09-30T11:16:08;24.30;58.90
62589;DHT22;58504;48.770;9.148;2023-09-30T11:18:35;24.30;59.00
62589;DHT22;58504;48.770;9.148;2023-09-30T11:21:05;24.30;59.00
62589;DHT22;58504;48.770;9.148;2023-09-30T11:23:32;24.30;59.10
62589;DHT22;58504;48.770;9.148;2023-09-30T11:25:59;24.30;59.00
62589;DHT22;58504;48.770;9.148;2023-09-30T11:28:35;24.30;58.90
62589;DHT22;58504;48.770;9.148;2023-09-30T11:31:04;24.40;58.90
62589;DHT22;58504;48.770;9.148;2023-09-30T11:33:47;24.40;58.90
62589;DHT22;58504;48.770;9.148;2023-09-30T11:36:14;24.30;58.90
62589;DHT22;58504;48.770;9.148;2023-09-30T11:38:45;24.30;58.90
62589;DHT22;58504;48.770;9.148;2023-09-30T11:41:12;24.40;58.80
62589;DHT22;58504;48.770;9.148;2023-09-30T11:43:45;24.50;58.80
62589;DHT22;58504;48.770;9.148;2023-09-30T11:46:25;24.50;58.60
62589;DHT22;58504;48.770;9.148;2023-09-30T11:48:57;24.50;58.50
62589;DHT22;58504;48.770;9.148;2023-09-30T11:51:25;24.60;58.50
62589;DHT22;58504;48.770;9.148;2023-09-30T11:53:52;24.60;58.30
62589;DHT22;58504;48.770;9.148;2023-09-30T11:56:20;24.60;58.20
62589;DHT22;58504;48.770;9.148;2023-09-30T11:58:53;24.70;58.20
62589;DHT22;58504;48.770;9.148;2023-09-30T12:01:20;24.70;58.10
62589;DHT22;58504;48.770;9.148;2023-09-30T12:03:48;24.70;58.00
62589;DHT22;58504;48.770;9.148;2023-09-30T12:06:17;24.70;58.00
62589;DHT22;58504;48.770;9.148;2023-09-30T12:08:44;24.80;58.00
62589;DHT22;58504;48.770;9.148;2023-09-30T12:11:11;24.70;58.00
62589;DHT22;58504;48.770;9.148;2023-09-30T12:13:38;24.70;58.10
62589;DHT22;58504;48.770;9.148;2023-09-30T12:16:05;24.60;58.20
62589;DHT22;58504;48.770;9.148;2023-09-30T12:18:32;24.60;58.30
62589;DHT22;58504;48.770;9.148;2023-09-30T12:21:00;24.50;58.40
62589;DHT22;58504;48.770;9.148;2023-09-30T12:23:27;24.50;58.50
62589;DHT22;58504;48.770;9.148;2023-09-30T12:25:54;24.40;58.50
62589;DHT22;58504;48.770;9.148;2023-09-30T12:28:20;24.40;58.60
62589;DHT22;58504;48.770;9.148;2023-09-30T12:30:47;24.40;58.70
62589;DHT22;58504;48.770;9.148;2023-09-30T12:33:14;24.40;58.60
62589;DHT22;58504;48.770;9.148;2023-09-30T12:35:40;24.50;58.60
62589;DHT22;58504;48.770;9.148;2023-09-30T12:38:09;24.50;58.50
62589;DHT22;58504;48.770;9.148;2023-09-30T12:40:36;24.60;58.40
62589;DHT22;58504;48.770;9.148;2023-09-30T12:43:03;24.60;58.20
62589;DHT22;58504;48.770;9.148;2023-09-30T12:45:31;24.70;58.20
62589;DHT22;58504;48.770;9.148;2023-09-30T12:47:58;24.70;58.10
62589;DHT22;58504;48.770;9.148;2023-09-30T12:50:24;24.70;58.10
62589;DHT22;58504;48.770;9.148;2023-09-30T12:52:50;24.70;58.00
62589;DHT22;58504;48.770;9.148;2023-09-30T12:55:19;24.70;58.00
62589;DHT22;58504;48.770;9.148;2023-09-30T12:57:45;24.70;57.90
62589;DHT22;58504;48.770;9.148;2023-09-30T13:00:13;24.80;58.00
62589;DHT22;58504;48.770;9.148;2023-09-30T13:02:41;24.80;57.90
62589;DHT22;58504;48.770;9.148;2023-09-30T13:05:08;24.80;57.80
62589;DHT22;58504;48.770;9.148;2023-09-30T13:07:35;24.90;57.80
62589;DHT22;58504;48.770;9.148;2023-09-30T13:10:02;24.90;57.70
62589;DHT22;58504;48.770;9.148;2023-09-30T13:12:32;24.90;57.50
62589;DHT22;58504;48.770;9.148;2023-09-30T13:14:59;25.00;57.40
62589;DHT22;58504;48.770;9.148;2023-09-30T13:17:26;25.10;57.10
62589;DHT22;58504;48.770;9.148;2023-09-30T13:19:54;25.30;56.90
62589;DHT22;58504;48.770;9.148;2023-09-30T13:22:21;25.30;56.60
62589;DHT22;58504;48.770;9.148;2023-09-30T13:24:48;25.50;56.40
62589;DHT22;58504;48.770;9.148;2023-09-30T13:27:15;25.80;55.80
62589;DHT22;58504;48.770;9.148;2023-09-30T13:29:44;26.20;54.90
62589;DHT22;58504;48.770;9.148;2023-09-30T13:32:11;26.50;54.00
62589;DHT22;58504;48.770;9.148;2023-09-30T13:34:39;26.50;53.60
62589;DHT22;58504;48.770;9.148;2023-09-30T13:37:06;26.40;53.70
62589;DHT22;58504;48.770;9.148;2023-09-30T13:39:33;26.20;54.00
62589;DHT22;58504;48.770;9.148;2023-09-30T13:42:00;26.00;54.50
62589;DHT22;58504;48.770;9.148;2023-09-30T13:44:27;25.80;54.90
62589;DHT22;58504;48.770;9.148;2023-09-30T13:46:55;25.60;55.30
62589;DHT22;58504;48.770;9.148;2023-09-30T13:49:22;25.40;55.80
62589;DHT22;58504;48.770;9.148;2023-09-30T13:51:49;25.30;56.30
62589;DHT22;58504;48.770;9.148;2023-09-30T13:54:15;25.10;56.50
62589;DHT22;58504;48.770;9.148;2023-09-30T13:56:43;25.00;56.80
62589;DHT22;58504;48.770;9.148;2023-09-30T13:59:10;24.90;57.10
62589;DHT22;58504;48.770;9.148;2023-09-30T14:01:36;24.90;57.40
62589;DHT22;58504;48.770;9.148;2023-09-30T14:04:08;24.70;57.50
62589;DHT22;58504;48.770;9.148;2023-09-30T14:06:35;24.70;57.70
62589;DHT22;58504;48.770;9.148;2023-09-30T14:09:02;24.60;57.80
62589;DHT22;58504;48.770;9.148;2023-09-30T14:11:30;24.60;58.50
62589;DHT22;58504;48.770;9.148;2023-09-30T14:13:57;24.50;58.10
62589;DHT22;58504;48.770;9.148;2023-09-30T14:16:23;24.50;58.30
62589;DHT22;58504;48.770;9.148;2023-09-30T14:18:51;24.40;58.40
62589;DHT22;58504;48.770;9.148;2023-09-30T14:21:19;24.40;58.40
62589;DHT22;58504;48.770;9.148;2023-09-30T14:23:46;24.40;58.50
62589;DHT22;58504;48.770;9.148;2023-09-30T14:26:13;24.30;58.50
62589;DHT22;58504;48.770;9.148;2023-09-30T14:28:40;24.40;58.70
62589;DHT22;58504;48.770;9.148;2023-09-30T14:31:07;24.30;58.70
62589;DHT22;58504;48.770;9.148;2023-09-30T14:33:34;24.20;58.70
62589;DHT22;58504;48.770;9.148;2023-09-30T14:36:01;24.20;58.80
62589;DHT22;58504;48.770;9.148;2023-09-30T14:38:33;24.20;58.90
62589;DHT22;58504;48.770;9.148;2023-09-30T14:40:59;24.20;58.90
62589;DHT22;58504;48.770;9.148;2023-09-30T14:43:26;24.20;59.00
62589;DHT22;58504;48.770;9.148;2023-09-30T14:45:53;24.10;59.00
62589;DHT22;58504;48.770;9.148;2023-09-30T14:48:20;24.10;59.10
62589;DHT22;58504;48.770;9.148;2023-09-30T14:50:49;24.10;59.00
62589;DHT22;58504;48.770;9.148;2023-09-30T14:53:16;24.10;59.10
62589;DHT22;58504;48.770;9.148;2023-09-30T14:55:46;24.10;59.10
62589;DHT22;58504;48.770;9.148;2023-09-30T14:58:13;24.10;59.10
62589;DHT22;58504;48.770;9.148;2023-09-30T15:00:40;24.20;59.20
62589;DHT22;58504;48.770;9.148;2023-09-30T15:03:07;24.20;59.10
62589;DHT22;58504;48.770;9.148;2023-09-30T15:05:34;24.10;59.10
62589;DHT22;58504;48.770;9.148;2023-09-30T15:08:01;24.10;59.20
62589;DHT22;58504;48.770;9.148;2023-09-30T15:10:28;24.10;59.10
62589;DHT22;58504;48.770;9.148;2023-09-30T15:12:56;24.10;59.20
62589;DHT22;58504;48.770;9.148;2023-09-30T15:15:23;24.00;59.10
62589;DHT22;58504;48.770;9.148;2023-09-30T15:17:50;24.00;59.20
62589;DHT22;58504;48.770;9.148;2023-09-30T15:20:18;24.00;59.20
62589;DHT22;58504;48.770;9.148;2023-09-30T15:22:45;24.00;59.30
62589;DHT22;58504;48.770;9.148;2023-09-30T15:25:11;24.00;59.50
62589;DHT22;58504;48.770;9.148;2023-09-30T15:27:38;24.00;59.50
62589;DHT22;58504;48.770;9.148;2023-09-30T15:30:08;23.90;59.40
62589;DHT22;58504;48.770;9.148;2023-09-30T15:32:35;23.90;59.50
62589;DHT22;58504;48.770;9.148;2023-09-30T15:35:02;23.90;59.50